createdAt,value
2022-08-17T00:02:25.462Z,100763.44
2022-08-17T00:04:54.329Z,100752.81
2022-08-17T00:07:21.089Z,100756.41
2022-08-17T00:09:47.730Z,100756.31
2022-08-17T00:12:40.910Z,100759.47
2022-08-17T00:15:01.421Z,100762.06
2022-08-17T00:17:28.108Z,100754.69
2022-08-17T00:19:54.738Z,100752.19
2022-08-17T00:22:34.309Z,100758.84
2022-08-17T00:25:03.667Z,100770.09
2022-08-17T00:27:30.354Z,100765.56
2022-08-17T00:29:57.061Z,100752.81
2022-08-17T00:33:11.986Z,100768.84
2022-08-17T00:35:13.021Z,100768.38
2022-08-17T00:37:40.257Z,100763.53
2022-08-17T00:40:09.148Z,100767.09
2022-08-17T00:42:35.939Z,100755.47
2022-08-17T00:45:05.218Z,100762.44
2022-08-17T00:47:32.181Z,100760.84
2022-08-17T00:49:59.017Z,100768.41
2022-08-17T00:52:32.561Z,100769.59
2022-08-17T00:54:59.812Z,100767.69
2022-08-17T00:57:31.210Z,100763.53
2022-08-17T01:00:05.872Z,100772.09
2022-08-17T01:02:42.639Z,100774.78
2022-08-17T01:05:25.645Z,100772.13
2022-08-17T01:07:53.248Z,100776.03
2022-08-17T01:10:59.577Z,100775.78
2022-08-17T01:13:14.190Z,100775.41
2022-08-17T01:15:46.516Z,100776.78
2022-08-17T01:18:14.178Z,100773.56
2022-08-17T01:20:52.035Z,100772.00
2022-08-17T01:23:21.330Z,100777.47
2022-08-17T01:26:01.877Z,100781.34
2022-08-17T01:28:52.316Z,100773.94
2022-08-17T01:31:18.301Z,100771.66
2022-08-17T01:33:44.977Z,100773.19
2022-08-17T01:36:11.847Z,100766.91
2022-08-17T01:38:39.288Z,100774.28
2022-08-17T01:41:12.577Z,100769.53
2022-08-17T01:44:01.610Z,100775.09
2022-08-17T01:46:36.600Z,100770.19
2022-08-17T01:49:07.445Z,100768.72
2022-08-17T01:51:34.669Z,100778.78
2022-08-17T01:54:10.349Z,100785.75
2022-08-17T01:56:40.564Z,100775.94
2022-08-17T01:59:07.240Z,100778.97
2022-08-17T02:01:35.071Z,100780.97
2022-08-17T02:04:02.939Z,100766.78
2022-08-17T02:06:52.721Z,100782.22
2022-08-17T02:09:25.607Z,100779.31
2022-08-17T02:11:56.641Z,100789.22
2022-08-17T02:14:24.247Z,100795.59
2022-08-17T02:16:52.452Z,100794.19
2022-08-17T02:19:19.112Z,100791.47
2022-08-17T02:21:48.976Z,100788.25
2022-08-17T02:24:58.671Z,100799.13
2022-08-17T02:27:16.212Z,100794.59
2022-08-17T02:29:42.855Z,100798.91
2022-08-17T02:32:20.862Z,100801.00
2022-08-17T02:34:54.667Z,100807.88
2022-08-17T02:37:21.308Z,100817.19
2022-08-17T02:39:48.014Z,100817.19
2022-08-17T02:42:15.088Z,100815.34
2022-08-17T02:44:42.020Z,100814.25
2022-08-17T02:47:10.064Z,100814.25
2022-08-17T02:49:37.695Z,100812.91
2022-08-17T02:52:06.991Z,100813.28
2022-08-17T02:54:41.669Z,100815.00
2022-08-17T02:57:10.142Z,100807.44
2022-08-17T02:59:46.764Z,100812.28
2022-08-17T03:02:15.607Z,100812.50
2022-08-17T03:04:42.265Z,100813.09
2022-08-17T03:07:08.883Z,100811.28
2022-08-17T03:09:35.597Z,100802.47
2022-08-17T03:12:08.530Z,100802.47
2022-08-17T03:14:41.723Z,100802.47
2022-08-17T03:17:16.944Z,100809.09
2022-08-17T03:19:44.525Z,100812.47
2022-08-17T03:22:36.456Z,100804.94
2022-08-17T03:24:57.885Z,100810.44
2022-08-17T03:27:24.497Z,100806.88
2022-08-17T03:29:51.048Z,100810.06
2022-08-17T03:32:17.817Z,100804.31
2022-08-17T03:34:44.449Z,100796.84
2022-08-17T03:37:11.128Z,100796.28
2022-08-17T03:39:38.162Z,100793.69
2022-08-17T03:42:31.815Z,100792.09
2022-08-17T03:45:00.341Z,100797.47
2022-08-17T03:47:45.619Z,100812.00
2022-08-17T03:50:32.362Z,100812.94
2022-08-17T03:53:17.866Z,100802.69
2022-08-17T03:56:03.281Z,100799.25
2022-08-17T03:58:29.992Z,100807.56
2022-08-17T04:00:56.721Z,100802.91
2022-08-17T04:03:23.478Z,100797.31
2022-08-17T04:05:50.151Z,100805.16
2022-08-17T04:08:16.767Z,100794.75
2022-08-17T04:10:45.154Z,100792.09
2022-08-17T04:13:12.515Z,100792.25
2022-08-17T04:15:39.261Z,100791.75
2022-08-17T04:18:07.550Z,100791.94
2022-08-17T04:20:34.565Z,100799.78
2022-08-17T04:23:11.681Z,100812.31
2022-08-17T04:25:42.273Z,100815.44
2022-08-17T04:28:16.113Z,100825.19
2022-08-17T04:30:45.174Z,100818.56
2022-08-17T04:33:14.809Z,100823.19
2022-08-17T04:35:47.464Z,100824.06
2022-08-17T04:38:17.980Z,100833.81
2022-08-17T04:41:03.248Z,100830.75
2022-08-17T04:43:31.978Z,100838.44
2022-08-17T04:46:02.403Z,100837.72
2022-08-17T04:48:36.410Z,100838.38
2022-08-17T04:51:15.179Z,100836.38
2022-08-17T04:53:45.248Z,100835.97
2022-08-17T04:56:16.637Z,100838.72
2022-08-17T04:58:48.530Z,100843.66
2022-08-17T05:04:20.779Z,100834.41
2022-08-17T05:06:49.953Z,100847.09
2022-08-17T05:09:18.036Z,100854.41
2022-08-17T05:11:45.859Z,100858.75
2022-08-17T05:14:13.024Z,100868.44
2022-08-17T05:16:39.692Z,100869.72
2022-08-17T05:19:06.452Z,100885.16
2022-08-17T05:21:33.219Z,100892.22
2022-08-17T05:24:00.105Z,100891.16
2022-08-17T05:26:28.796Z,100883.72
2022-08-17T05:28:59.546Z,100898.03
2022-08-17T05:31:28.939Z,100903.34
2022-08-17T05:33:55.953Z,100895.56
2022-08-17T05:36:43.364Z,100888.63
2022-08-17T05:39:09.438Z,100896.81
2022-08-17T05:41:42.660Z,100890.75
2022-08-17T05:44:09.340Z,100895.41
2022-08-17T05:46:40.552Z,100899.31
2022-08-17T05:49:08.694Z,100893.09
2022-08-17T05:52:08.209Z,100897.38
2022-08-17T05:54:53.697Z,100906.53
2022-08-17T05:57:43.570Z,100909.59
2022-08-17T06:00:41.843Z,100898.34
2022-08-17T06:03:40.536Z,100888.81
2022-08-17T06:06:33.722Z,100902.75
2022-08-17T06:09:34.085Z,100908.25
2022-08-17T06:12:24.974Z,100913.00
2022-08-17T06:15:03.696Z,100910.44
2022-08-17T06:17:31.299Z,100924.38
2022-08-17T06:20:03.403Z,100925.94
2022-08-17T06:22:35.256Z,100926.16
2022-08-17T06:25:46.349Z,100932.16
2022-08-17T06:28:18.449Z,100920.56
2022-08-17T06:31:00.698Z,100926.31
2022-08-17T06:33:35.295Z,100928.47
2022-08-17T06:36:29.298Z,100927.88
2022-08-17T06:39:17.839Z,100923.59
2022-08-17T06:42:09.639Z,100917.25
2022-08-17T06:45:16.998Z,100912.22
2022-08-17T06:47:56.959Z,100916.75
2022-08-17T06:50:46.604Z,100917.72
2022-08-17T06:53:38.270Z,100903.41
2022-08-17T06:56:06.972Z,100898.97
2022-08-17T06:58:35.823Z,100909.50
2022-08-17T07:01:10.897Z,100910.94
2022-08-17T07:03:57.161Z,100911.16
2022-08-17T07:06:28.375Z,100920.63
2022-08-17T07:09:07.644Z,100910.44
2022-08-17T07:11:41.009Z,100904.44
2022-08-17T07:14:36.636Z,100895.25
2022-08-17T07:17:13.466Z,100900.22
2022-08-17T07:19:45.431Z,100874.16
2022-08-17T07:22:30.804Z,100888.69
2022-08-17T07:25:18.539Z,100889.03
2022-08-17T07:27:51.601Z,100887.91
2022-08-17T07:30:47.238Z,100883.47
2022-08-17T07:33:26.832Z,100878.41
2022-08-17T07:35:53.925Z,100898.16
2022-08-17T07:38:28.400Z,100894.09
2022-08-17T07:40:57.891Z,100892.97
2022-08-17T07:43:49.797Z,100892.88
2022-08-17T07:46:39.630Z,100890.94
2022-08-17T07:49:09.408Z,100890.09
2022-08-17T07:51:48.212Z,100887.13
2022-08-17T07:54:30.317Z,100895.84
2022-08-17T07:57:09.049Z,100891.16
2022-08-17T07:59:37.966Z,100873.09
2022-08-17T08:02:33.670Z,100877.66
2022-08-17T08:05:10.147Z,100895.97
2022-08-17T08:07:56.455Z,100885.59
2022-08-17T08:10:28.231Z,100886.72
2022-08-17T08:13:12.271Z,100893.47
2022-08-17T08:15:53.714Z,100899.25
2022-08-17T08:18:54.605Z,100893.31
2022-08-17T08:21:19.814Z,100890.88
2022-08-17T08:23:59.635Z,100894.06
2022-08-17T08:26:46.450Z,100898.03
2022-08-17T08:29:23.479Z,100887.63
2022-08-17T08:32:28.078Z,100879.13
2022-08-17T08:35:02.703Z,100896.63
2022-08-17T08:38:07.975Z,100904.31
2022-08-17T08:41:10.018Z,100893.06
2022-08-17T08:43:36.579Z,100891.66
2022-08-17T08:46:21.922Z,100896.38
2022-08-17T08:49:17.105Z,100895.13
2022-08-17T08:52:00.295Z,100894.69
2022-08-17T08:54:35.997Z,100899.38
2022-08-17T08:57:34.081Z,100883.31
2022-08-17T09:00:09.026Z,100877.59
2022-08-17T09:02:59.941Z,100866.78
2022-08-17T09:05:48.683Z,100870.47
2022-08-17T09:08:15.898Z,100863.50
2022-08-17T09:12:02.779Z,100864.06
2022-08-17T09:14:47.370Z,100872.72
2022-08-17T09:17:29.889Z,100867.34
2022-08-17T09:20:27.221Z,100866.41
2022-08-17T09:23:08.653Z,100863.19
2022-08-17T09:25:49.871Z,100863.19
2022-08-17T09:28:27.261Z,100862.78
2022-08-17T09:31:04.221Z,100862.03
2022-08-17T09:33:37.019Z,100850.97
2022-08-17T09:36:10.201Z,100853.97
2022-08-17T09:38:49.087Z,100860.25
2022-08-17T09:41:18.326Z,100850.84
2022-08-17T09:43:54.197Z,100851.16
2022-08-17T09:46:38.958Z,100859.81
2022-08-17T09:49:40.754Z,100854.59
2022-08-17T09:52:20.123Z,100844.59
2022-08-17T09:54:47.257Z,100853.00
2022-08-17T09:57:30.237Z,100854.06
2022-08-17T10:00:16.451Z,100848.66
2022-08-17T10:03:09.767Z,100859.28
2022-08-17T10:05:40.806Z,100854.06
2022-08-17T10:08:13.278Z,100855.63
2022-08-17T10:10:56.479Z,100867.50
2022-08-17T10:14:37.318Z,100869.13
2022-08-17T10:17:03.455Z,100871.91
2022-08-17T10:19:44.013Z,100863.88
2022-08-17T10:22:53.268Z,100866.78
2022-08-17T10:25:54.724Z,100855.31
2022-08-17T10:28:30.314Z,100854.88
2022-08-17T10:31:31.029Z,100850.16
2022-08-17T10:34:19.187Z,100862.38
2022-08-17T10:36:52.542Z,100865.91
2022-08-17T10:39:28.085Z,100869.59
2022-08-17T10:42:03.243Z,100865.19
2022-08-17T10:45:03.568Z,100853.28
2022-08-17T10:47:56.115Z,100853.84
2022-08-17T10:50:49.428Z,100862.00
2022-08-17T10:53:49.466Z,100861.47
2022-08-17T10:56:18.935Z,100857.41
2022-08-17T10:58:55.640Z,100861.34
2022-08-17T11:01:34.517Z,100851.94
2022-08-17T11:04:50.432Z,100853.31
2022-08-17T11:07:37.073Z,100849.50
2022-08-17T11:10:36.232Z,100856.22
2022-08-17T11:13:40.634Z,100847.22
2022-08-17T11:16:08.909Z,100836.31
2022-08-17T11:18:35.831Z,100834.63
2022-08-17T11:21:24.372Z,100834.13
2022-08-17T11:24:30.604Z,100829.47
2022-08-17T11:27:03.387Z,100838.84
2022-08-17T11:29:50.661Z,100839.53
2022-08-17T11:32:47.591Z,100832.56
2022-08-17T11:35:21.371Z,100824.75
2022-08-17T11:38:08.687Z,100832.22
2022-08-17T11:41:14.521Z,100828.13
2022-08-17T11:43:59.094Z,100833.88
2022-08-17T11:47:10.179Z,100830.31
2022-08-17T11:49:58.443Z,100839.13
2022-08-17T11:52:46.934Z,100831.03
2022-08-17T11:55:35.723Z,100828.78
2022-08-17T11:58:31.085Z,100828.66
2022-08-17T12:01:03.706Z,100818.84
2022-08-17T12:03:33.421Z,100821.88
2022-08-17T12:06:41.557Z,100809.94
2022-08-17T12:09:29.779Z,100813.50
2022-08-17T12:12:16.850Z,100808.06
2022-08-17T12:15:10.454Z,100804.28
2022-08-17T12:17:40.467Z,100805.63
2022-08-17T12:20:32.117Z,100801.66
2022-08-17T12:23:09.954Z,100814.91
2022-08-17T12:25:45.428Z,100808.75
2022-08-17T12:28:24.439Z,100812.78
2022-08-17T12:30:52.167Z,100800.34
2022-08-17T12:33:25.467Z,100798.13
2022-08-17T12:36:04.660Z,100804.03
2022-08-17T12:38:37.160Z,100794.13
2022-08-17T12:41:25.872Z,100800.75
2022-08-17T12:44:02.425Z,100802.50
2022-08-17T12:46:44.791Z,100795.72
2022-08-17T12:49:15.799Z,100790.19
2022-08-17T12:51:47.789Z,100785.22
2022-08-17T12:54:26.531Z,100791.66
2022-08-17T12:56:53.613Z,100786.34
2022-08-17T12:59:30.290Z,100787.22
2022-08-17T13:01:57.816Z,100796.56
2022-08-17T13:04:26.593Z,100791.28
2022-08-17T13:06:59.542Z,100782.44
2022-08-17T13:09:36.070Z,100792.50
2022-08-17T13:12:08.116Z,100784.31
2022-08-17T13:14:35.403Z,100781.97
2022-08-17T13:17:09.692Z,100791.78
2022-08-17T13:19:48.470Z,100781.09
2022-08-17T13:22:15.112Z,100783.22
2022-08-17T13:24:54.962Z,100786.78
2022-08-17T13:27:23.920Z,100774.47
2022-08-17T13:29:55.799Z,100769.03
2022-08-17T13:32:33.427Z,100768.19
2022-08-17T13:35:14.303Z,100764.44
2022-08-17T13:37:57.745Z,100761.97
2022-08-17T13:40:53.193Z,100754.31
2022-08-17T13:43:41.057Z,100741.63
2022-08-17T13:46:11.607Z,100742.00
2022-08-17T13:48:39.031Z,100742.00
2022-08-17T13:51:14.116Z,100727.41
2022-08-17T13:53:40.747Z,100709.31
2022-08-17T13:56:33.391Z,100676.53
2022-08-17T13:59:01.088Z,100683.84
2022-08-17T14:01:33.265Z,100669.16
2022-08-17T14:04:05.851Z,100657.06
2022-08-17T14:06:52.477Z,100637.84
2022-08-17T14:09:24.312Z,100608.09
2022-08-17T14:11:52.843Z,100604.16
2022-08-17T14:14:23.461Z,100613.81
2022-08-17T14:16:54.316Z,100629.91
2022-08-17T14:19:24.810Z,100648.22
2022-08-17T14:21:56.442Z,100653.13
2022-08-17T14:24:24.579Z,100651.63
2022-08-17T14:26:55.015Z,100656.81
2022-08-17T14:29:23.722Z,100656.09
2022-08-17T14:31:54.382Z,100650.13
2022-08-17T14:34:22.990Z,100663.88
2022-08-17T14:36:49.982Z,100674.72
2022-08-17T14:39:20.341Z,100674.66
2022-08-17T14:41:47.612Z,100684.53
2022-08-17T14:44:16.851Z,100695.72
2022-08-17T14:46:44.858Z,100692.03
2022-08-17T14:49:16.273Z,100703.19
2022-08-17T14:51:43.730Z,100702.78
2022-08-17T14:54:28.755Z,100705.53
2022-08-17T14:57:22.790Z,100702.16
2022-08-17T14:59:49.139Z,100713.78
2022-08-17T15:02:30.460Z,100714.69
2022-08-17T15:05:04.315Z,100703.94
2022-08-17T15:07:31.660Z,100714.78
2022-08-17T15:10:01.487Z,100717.00
2022-08-17T15:12:33.196Z,100719.00
2022-08-17T15:15:01.052Z,100726.91
2022-08-17T15:17:45.277Z,100721.06
2022-08-17T15:20:20.447Z,100718.25
2022-08-17T15:22:54.965Z,100710.22
2022-08-17T15:25:22.433Z,100714.03
2022-08-17T15:27:49.805Z,100712.97
2022-08-17T15:30:17.979Z,100705.72
2022-08-17T15:32:51.139Z,100701.28
2022-08-17T15:35:28.341Z,100701.19
2022-08-17T15:37:57.905Z,100693.53
2022-08-17T15:40:25.181Z,100676.22
2022-08-17T15:42:52.751Z,100670.47
2022-08-17T15:45:22.519Z,100671.84
2022-08-17T15:47:49.314Z,100665.44
2022-08-17T15:50:16.146Z,100660.47
2022-08-17T15:52:44.962Z,100662.41
2022-08-17T15:55:14.351Z,100665.00
2022-08-17T15:57:41.052Z,100655.56
2022-08-17T16:00:09.718Z,100661.13
2022-08-17T16:03:45.712Z,100670.22
2022-08-17T16:05:25.244Z,100668.66
2022-08-17T16:07:52.999Z,100681.53
2022-08-17T16:10:21.035Z,100687.31
2022-08-17T16:12:49.690Z,100680.56
2022-08-17T16:15:17.359Z,100693.69
2022-08-17T16:17:44.070Z,100687.38
2022-08-17T16:20:20.638Z,100684.09
2022-08-17T16:22:49.348Z,100692.09
2022-08-17T16:25:22.986Z,100679.13
2022-08-17T16:28:07.104Z,100668.91
2022-08-17T16:30:33.730Z,100655.06
2022-08-17T16:33:03.082Z,100643.84
2022-08-17T16:35:29.987Z,100624.22
2022-08-17T16:37:58.821Z,100611.47
2022-08-17T16:40:28.174Z,100626.22
2022-08-17T16:42:55.485Z,100627.75
2022-08-17T16:45:27.558Z,100623.56
2022-08-17T16:47:54.995Z,100620.81
2022-08-17T16:50:23.739Z,100619.03
2022-08-17T17:16:29.294Z,100677.47
2022-08-17T17:19:17.945Z,100677.28
2022-08-17T17:22:33.054Z,100667.69
2022-08-17T17:25:53.848Z,100662.75
2022-08-17T17:28:50.309Z,100655.28
2022-08-17T17:31:20.478Z,100660.78
2022-08-17T17:33:52.541Z,100675.44
2022-08-17T17:36:40.263Z,100686.66
2022-08-17T17:39:14.157Z,100677.34
2022-08-17T17:41:58.669Z,100682.28
2022-08-17T17:44:30.208Z,100765.97
2022-08-17T17:47:00.967Z,100841.69
2022-08-17T17:49:34.166Z,100911.28
2022-08-17T17:52:13.176Z,100920.56
2022-08-17T17:55:04.412Z,100916.97
2022-08-17T17:58:02.431Z,100924.75
2022-08-17T18:00:44.355Z,100924.63
2022-08-17T18:03:36.026Z,100948.53
2022-08-17T18:06:05.518Z,100946.03
2022-08-17T18:08:49.564Z,100946.44
2022-08-17T18:11:53.965Z,100955.28
2022-08-17T18:14:44.176Z,100962.50
2022-08-17T18:17:10.890Z,100971.72
2022-08-17T18:19:39.892Z,100958.41
2022-08-17T18:22:14.454Z,100952.03
2022-08-17T18:24:45.281Z,100943.28
2022-08-17T18:27:31.460Z,100948.66
2022-08-17T18:30:22.454Z,100944.56
2022-08-17T18:32:49.823Z,100964.28
2022-08-17T18:35:19.540Z,100954.66
2022-08-17T18:37:55.951Z,100962.63
2022-08-17T18:40:30.882Z,100978.41
2022-08-17T18:43:13.727Z,100979.59
2022-08-17T18:45:52.187Z,100964.16
2022-08-17T18:48:33.403Z,100957.75
2022-08-17T18:51:42.141Z,100949.19
2022-08-17T18:54:13.067Z,100938.88
2022-08-17T18:56:59.779Z,100952.94
2022-08-17T18:59:33.748Z,100946.44
2022-08-17T19:02:20.572Z,100933.28
2022-08-17T19:05:13.597Z,100924.03
2022-08-17T19:07:46.709Z,100922.53
2022-08-17T19:10:21.793Z,100926.25
2022-08-17T19:13:00.466Z,100919.53
2022-08-17T19:15:35.254Z,100929.06
2022-08-17T19:18:14.721Z,100940.91
2022-08-17T19:20:49.889Z,100929.69
2022-08-17T19:23:54.003Z,100917.69
2022-08-17T19:26:53.513Z,100911.66
2022-08-17T19:29:25.619Z,100913.66
2022-08-17T19:31:55.827Z,100907.69
2022-08-17T19:34:34.108Z,100910.25
2022-08-17T19:37:10.448Z,100898.66
2022-08-17T19:39:55.990Z,100891.69
2022-08-17T19:42:26.803Z,100887.16
2022-08-17T19:45:11.896Z,100892.06
2022-08-17T19:48:02.829Z,100899.53
2022-08-17T19:51:04.167Z,100896.94
2022-08-17T19:54:01.516Z,100905.13
2022-08-17T19:56:37.545Z,100901.88
2022-08-17T19:59:23.611Z,100902.06
2022-08-17T20:02:05.164Z,100896.16
2022-08-17T20:04:42.305Z,100891.72
2022-08-17T20:07:17.329Z,100898.19
2022-08-17T20:09:52.866Z,100908.41
2022-08-17T20:12:23.862Z,100903.09
2022-08-17T20:14:57.218Z,100903.28
2022-08-17T20:17:34.991Z,100898.88
2022-08-17T20:20:24.220Z,100888.53
2022-08-17T20:23:04.783Z,100881.66
2022-08-17T20:26:05.422Z,100874.63
2022-08-17T20:28:36.051Z,100882.91
2022-08-17T20:31:25.442Z,100882.91
2022-08-17T20:33:55.082Z,100880.34
2022-08-17T20:36:24.274Z,100874.47
2022-08-17T20:38:57.131Z,100887.16
2022-08-17T20:41:26.938Z,100904.13
2022-08-17T20:43:56.477Z,100892.59
2022-08-17T20:46:33.037Z,100889.03
2022-08-17T20:49:08.676Z,100881.38
2022-08-17T20:52:00.633Z,100873.81
2022-08-17T20:54:51.118Z,100883.34
2022-08-17T20:57:33.198Z,100879.09
2022-08-17T21:00:14.811Z,100890.34
2022-08-17T21:02:49.618Z,100893.72
2022-08-17T21:05:32.604Z,100881.78
2022-08-17T21:08:14.372Z,100882.56
2022-08-17T21:10:43.853Z,100869.97
2022-08-17T21:13:15.558Z,100873.09
2022-08-17T21:15:42.278Z,100870.53
2022-08-17T21:18:17.268Z,100865.91
2022-08-17T21:21:17.594Z,100865.63
2022-08-17T21:24:09.357Z,100863.78
2022-08-17T21:27:04.605Z,100869.88
2022-08-17T21:29:34.016Z,100861.63
2022-08-17T21:32:06.265Z,100852.00
2022-08-17T21:35:07.968Z,100843.72
2022-08-17T21:37:40.753Z,100835.41
2022-08-17T21:40:10.530Z,100825.28
2022-08-17T21:42:45.074Z,100826.59
2022-08-17T21:45:21.141Z,100848.50
2022-08-17T21:48:11.501Z,100856.78
2022-08-17T21:50:41.627Z,100853.75
2022-08-17T21:53:15.059Z,100856.34
2022-08-17T21:55:41.763Z,100867.25
2022-08-17T21:58:29.400Z,100860.75
2022-08-17T22:01:09.518Z,100860.06
2022-08-17T22:03:37.548Z,100868.44
2022-08-17T22:06:24.827Z,100858.66
2022-08-17T22:09:16.572Z,100869.53
2022-08-17T22:11:58.514Z,100866.19
2022-08-17T22:14:52.506Z,100874.78
2022-08-17T22:17:45.027Z,100872.88
2022-08-17T22:20:21.789Z,100885.75
2022-08-17T22:23:13.068Z,100882.44
2022-08-17T22:26:09.544Z,100886.84
2022-08-17T22:28:53.178Z,100883.19
2022-08-17T22:31:23.582Z,100888.56
2022-08-17T22:34:02.354Z,100892.72
2022-08-17T22:36:30.246Z,100894.06
2022-08-17T22:39:11.135Z,100884.16
2022-08-17T22:41:48.040Z,100894.41
2022-08-17T22:44:14.952Z,100888.31
2022-08-17T22:46:49.396Z,100885.63
2022-08-17T22:49:34.247Z,100874.84
2022-08-17T22:52:29.222Z,100869.84
2022-08-17T22:55:35.714Z,100857.38
2022-08-17T22:58:30.511Z,100866.19
2022-08-17T23:01:34.860Z,100861.19
2022-08-17T23:04:03.196Z,100858.25
2022-08-17T23:06:33.916Z,100848.19
2022-08-17T23:09:03.843Z,100858.63
2022-08-17T23:11:47.860Z,100867.19
2022-08-17T23:14:19.222Z,100862.56
2022-08-17T23:16:46.937Z,100864.31
2022-08-17T23:19:38.951Z,100874.72
2022-08-17T23:22:08.748Z,100862.63
2022-08-17T23:24:41.815Z,100873.97
2022-08-17T23:27:08.436Z,100850.91
2022-08-17T23:29:39.259Z,100838.22
2022-08-17T23:32:06.957Z,100839.28
2022-08-17T23:34:34.127Z,100839.88
2022-08-17T23:37:02.280Z,100827.97
2022-08-17T23:39:29.390Z,100816.44
2022-08-17T23:41:58.962Z,100813.41
2022-08-17T23:44:26.265Z,100816.53
2022-08-17T23:46:53.928Z,100824.47
2022-08-17T23:49:20.668Z,100834.72
2022-08-17T23:51:49.026Z,100828.75
2022-08-17T23:54:20.886Z,100826.22
2022-08-17T23:56:47.622Z,100825.97
2022-08-17T23:59:20.056Z,100816.19
